Time,TemperatureF,DewpointF,PressureIn,WindDirection,WindDirectionDegrees,WindSpeedMPH,WindSpeedGustMPH,Humidity,HourlyPrecipIn,Conditions,Clouds,dailyrainin,SoftwareType,DateUTC
2013-02-09 00:00:00,49.5,39.0,30.17,NW,315,7.1,7.1,67,0.00,CLR,,0.56,WeatherDisplay:10.37,2013-02-09 05:00:00,
2013-02-09 00:01:00,49.5,38.6,30.17,West,270,6.9,6.9,66,0.00,RA,,0.00,WeatherDisplay:10.37,2013-02-09 05:01:00,
2013-02-09 00:06:00,49.3,38.4,30.17,West,270,9.2,9.2,66,0.00,RA,,0.00,WeatherDisplay:10.37,2013-02-09 05:06:00,
2013-02-09 00:11:00,49.1,37.8,30.18,NNE,22,5.8,5.8,65,0.00,CLR,,0.00,WeatherDisplay:10.37,2013-02-09 05:11:00,
2013-02-09 00:16:00,48.9,37.3,30.18,NW,315,9.9,9.9,64,0.00,CLR,,0.00,WeatherDisplay:10.37,2013-02-09 05:16:00,
2013-02-09 00:21:00,48.7,37.1,30.18,NNW,338,6.9,6.9,64,0.00,CLR,,0.00,WeatherDisplay:10.37,2013-02-09 05:21:00,
2013-02-09 00:26:00,48.6,37.3,30.18,North,0,2.3,2.4,65,0.00,CLR,,0.00,WeatherDisplay:10.37,2013-02-09 05:26:00,
2013-02-09 00:31:00,48.4,37.2,30.18,WNW,292,3.8,3.8,65,0.00,CLR,,0.00,WeatherDisplay:10.37,2013-02-09 05:31:00,
2013-02-09 00:36:00,48.2,37.0,30.18,WNW,292,8.1,8.1,65,0.00,CLR,,0.00,WeatherDisplay:10.37,2013-02-09 05:36:00,
2013-02-09 00:41:00,47.8,36.2,30.19,WNW,292,11.5,11.5,64,0.00,CLR,,0.00,WeatherDisplay:10.37,2013-02-09 05:41:00,
2013-02-09 00:46:00,47.7,36.1,30.19,NW,315,8.1,8.1,64,0.00,CLR,,0.00,WeatherDisplay:10.37,2013-02-09 05:46:00,
2013-02-09 00:51:00,47.5,35.5,30.19,West,270,8.1,8.1,63,0.00,CLR,,0.00,WeatherDisplay:10.37,2013-02-09 05:51:00,
2013-02-09 00:56:00,47.1,35.2,30.20,NNW,338,6.9,6.9,63,0.00,CLR,,0.00,WeatherDisplay:10.37,2013-02-09 05:56:00,
2013-02-09 01:01:00,46.9,35.0,30.20,NNW,338,4.6,4.6,63,0.00,CLR,,0.00,WeatherDisplay:10.37,2013-02-09 06:01:00,
2013-02-09 01:06:00,46.8,34.8,30.20,NW,315,4.6,4.6,63,0.00,CLR,,0.00,WeatherDisplay:10.37,2013-02-09 06:06:00,
2013-02-09 01:11:00,46.6,34.7,30.20,NW,315,4.6,4.6,63,0.00,CLR,,0.00,WeatherDisplay:10.37,2013-02-09 06:11:00,
2013-02-09 01:16:00,46.4,34.5,30.19,NW,315,11.8,11.8,63,0.00,CLR,,0.00,WeatherDisplay:10.37,2013-02-09 06:16:00,
2013-02-09 01:21:00,46.2,34.3,30.19,North,0,5.8,6.9,63,0.00,CLR,,0.00,WeatherDisplay:10.37,2013-02-09 06:21:00,
2013-02-09 01:26:00,46.0,33.7,30.20,WNW,292,6.9,6.9,62,0.00,CLR,,0.00,WeatherDisplay:10.37,2013-02-09 06:26:00,
2013-02-09 01:31:00,45.7,33.8,30.20,NNW,338,5.8,5.8,63,0.00,CLR,,0.00,WeatherDisplay:10.37,2013-02-09 06:31:00,
2013-02-09 01:36:00,45.7,33.8,30.20,West,270,8.1,8.1,63,0.00,CLR,,0.00,WeatherDisplay:10.37,2013-02-09 06:36:00,
2013-02-09 01:41:00,45.5,33.6,30.20,NW,315,5.8,5.8,63,0.00,CLR,,0.00,WeatherDisplay:10.37,2013-02-09 06:41:00,
2013-02-09 01:46:00,45.3,33.5,30.21,NW,315,4.6,4.6,63,0.00,CLR,,0.00,WeatherDisplay:10.37,2013-02-09 06:46:00,
2013-02-09 01:51:00,45.0,33.1,30.21,NW,315,2.3,2.3,63,0.00,CLR,,0.00,WeatherDisplay:10.37,2013-02-09 06:51:00,
2013-02-09 01:56:00,45.0,33.1,30.21,NW,315,4.6,5.2,63,0.00,CLR,,0.00,WeatherDisplay:10.37,2013-02-09 06:56:00,
2013-02-09 02:01:00,44.8,33.3,30.21,NW,315,3.5,3.5,64,0.00,CLR,,0.00,WeatherDisplay:10.37,2013-02-09 07:01:00,
2013-02-09 02:06:00,44.6,33.6,30.21,NW,315,2.3,2.3,65,0.00,CLR,,0.00,WeatherDisplay:10.37,2013-02-09 07:06:00,
2013-02-09 02:11:00,44.4,33.4,30.22,West,270,3.5,3.5,65,0.00,CLR,,0.00,WeatherDisplay:10.37,2013-02-09 07:11:00,
2013-02-09 02:16:00,44.2,33.6,30.22,NNW,338,4.6,4.6,66,0.00,CLR,,0.00,WeatherDisplay:10.37,2013-02-09 07:16:00,
2013-02-09 02:21:00,44.1,33.4,30.22,NW,315,4.6,4.6,66,0.00,CLR,,0.00,WeatherDisplay:10.37,2013-02-09 07:21:00,
2013-02-09 02:26:00,43.9,33.3,30.22,NW,315,5.8,5.8,66,0.00,CLR,,0.00,WeatherDisplay:10.37,2013-02-09 07:26:00,
2013-02-09 02:31:00,43.7,33.1,30.22,WNW,292,5.8,5.8,66,0.00,CLR,,0.00,WeatherDisplay:10.37,2013-02-09 07:31:00,
2013-02-09 02:36:00,43.5,32.9,30.22,WNW,292,6.9,6.9,66,0.00,CLR,,0.00,WeatherDisplay:10.37,2013-02-09 07:36:00,
2013-02-09 02:41:00,43.5,32.9,30.22,NNW,338,5.8,5.8,66,0.00,CLR,,0.00,WeatherDisplay:10.37,2013-02-09 07:41:00,
2013-02-09 02:46:00,43.3,32.7,30.22,NNW,338,5.8,5.8,66,0.00,CLR,,0.00,WeatherDisplay:10.37,2013-02-09 07:46:00,
2013-02-09 02:51:00,43.2,32.9,30.22,WNW,292,3.5,3.5,67,0.00,CLR,,0.00,WeatherDisplay:10.37,2013-02-09 07:51:00,
2013-02-09 02:56:00,43.0,32.8,30.22,West,270,3.5,3.5,67,0.00,CLR,,0.00,WeatherDisplay:10.37,2013-02-09 07:56:00,
2013-02-09 03:01:00,42.8,32.6,30.22,WSW,248,4.6,4.6,67,0.00,CLR,,0.00,WeatherDisplay:10.37,2013-02-09 08:01:00,
2013-02-09 03:06:00,42.8,32.6,30.22,NW,315,4.7,4.7,67,0.00,CLR,,0.00,WeatherDisplay:10.37,2013-02-09 08:06:00,
2013-02-09 03:11:00,42.6,32.4,30.22,WSW,248,4.6,4.6,67,0.00,CLR,,0.00,WeatherDisplay:10.37,2013-02-09 08:11:00,
2013-02-09 03:16:00,42.4,32.3,30.23,NNW,338,5.6,5.6,67,0.00,CLR,,0.00,WeatherDisplay:10.37,2013-02-09 08:16:00,
2013-02-09 03:21:00,42.3,32.1,30.22,WSW,248,3.5,3.5,67,0.00,CLR,,0.00,WeatherDisplay:10.37,2013-02-09 08:21:00,
2013-02-09 03:26:00,42.3,32.1,30.22,North,0,5.8,5.8,67,0.00,CLR,,0.00,WeatherDisplay:10.37,2013-02-09 08:26:00,
2013-02-09 03:31:00,42.1,31.9,30.22,NW,315,3.8,3.8,67,0.00,CLR,,0.00,WeatherDisplay:10.37,2013-02-09 08:31:00,
2013-02-09 03:36:00,41.9,31.7,30.22,NW,315,3.5,3.5,67,0.00,CLR,,0.00,WeatherDisplay:10.37,2013-02-09 08:36:00,
2013-02-09 03:41:00,41.7,31.6,30.22,North,0,5.8,5.8,67,0.00,CLR,,0.00,WeatherDisplay:10.37,2013-02-09 08:41:00,
2013-02-09 03:46:00,41.7,31.6,30.22,West,270,5.8,5.8,67,0.00,CLR,,0.00,WeatherDisplay:10.37,2013-02-09 08:46:00,
2013-02-09 03:51:00,41.5,31.4,30.22,West,270,5.9,5.9,67,0.00,CLR,,0.00,WeatherDisplay:10.37,2013-02-09 08:51:00,
2013-02-09 03:56:00,41.5,31.0,30.23,NW,315,5.8,5.8,66,0.00,CLR,,0.00,WeatherDisplay:10.37,2013-02-09 08:56:00,
2013-02-09 04:01:00,41.4,30.8,30.23,WSW,248,4.6,4.6,66,0.00,CLR,,0.00,WeatherDisplay:10.37,2013-02-09 09:01:00,
2013-02-09 04:06:00,41.4,30.8,30.23,West,270,3.5,3.5,66,0.00,CLR,,0.00,WeatherDisplay:10.37,2013-02-09 09:06:00,
2013-02-09 04:11:00,41.4,30.8,30.23,WNW,292,3.5,3.5,66,0.00,CLR,,0.00,WeatherDisplay:10.37,2013-02-09 09:11:00,
2013-02-09 04:16:00,41.2,31.0,30.24,NW,315,3.5,3.5,67,0.00,CLR,,0.00,WeatherDisplay:10.37,2013-02-09 09:16:00,
2013-02-09 04:21:00,41.0,30.9,30.23,SSW,202,2.9,2.9,67,0.00,CLR,,0.00,WeatherDisplay:10.37,2013-02-09 09:21:00,
2013-02-09 04:26:00,41.0,30.9,30.24,NW,315,2.4,2.4,67,0.00,CLR,,0.00,WeatherDisplay:10.37,2013-02-09 09:26:00,
2013-02-09 04:31:00,41.0,30.9,30.25,NW,315,3.5,3.5,67,0.00,CLR,,0.00,WeatherDisplay:10.37,2013-02-09 09:31:00,
2013-02-09 04:36:00,40.8,30.7,30.25,WSW,248,2.3,2.3,67,0.00,CLR,,0.00,WeatherDisplay:10.37,2013-02-09 09:36:00,
2013-02-09 04:41:00,40.6,30.5,30.25,SSW,202,2.9,2.9,67,0.00,CLR,,0.00,WeatherDisplay:10.37,2013-02-09 09:41:00,
2013-02-09 04:47:00,40.6,30.5,30.25,WSW,248,3.5,3.5,67,0.00,CLR,,0.00,WeatherDisplay:10.37,2013-02-09 09:47:00,
2013-02-09 04:52:00,40.5,30.4,30.26,West,270,2.3,2.3,67,0.00,CLR,,0.00,WeatherDisplay:10.37,2013-02-09 09:52:00,
2013-02-09 04:57:00,40.5,30.4,30.26,NW,315,3.5,3.5,67,0.00,CLR,,0.00,WeatherDisplay:10.37,2013-02-09 09:57:00,
2013-02-09 05:02:00,40.3,30.2,30.26,West,270,2.3,2.3,67,0.00,CLR,,0.00,WeatherDisplay:10.37,2013-02-09 10:02:00,
2013-02-09 05:07:00,40.1,30.0,30.26,West,270,2.3,2.3,67,0.00,CLR,,0.00,WeatherDisplay:10.37,2013-02-09 10:07:00,
2013-02-09 05:12:00,39.9,29.8,30.26,West,270,2.3,2.3,67,0.00,CLR,,0.00,WeatherDisplay:10.37,2013-02-09 10:12:00,
2013-02-09 05:17:00,39.9,30.2,30.27,WSW,248,3.6,3.6,68,0.00,CLR,,0.00,WeatherDisplay:10.37,2013-02-09 10:17:00,
2013-02-09 05:22:00,39.9,30.2,30.27,WSW,248,2.3,2.3,68,0.00,CLR,,0.00,WeatherDisplay:10.37,2013-02-09 10:22:00,
2013-02-09 05:27:00,39.7,30.0,30.27,WSW,248,2.3,2.3,68,0.00,CLR,,0.00,WeatherDisplay:10.37,2013-02-09 10:27:00,
2013-02-09 05:32:00,39.6,29.9,30.28,SW,225,4.0,4.0,68,0.00,CLR,,0.00,WeatherDisplay:10.37,2013-02-09 10:32:00,
2013-02-09 05:37:00,39.6,29.9,30.28,West,270,3.3,3.3,68,0.00,CLR,,0.00,WeatherDisplay:10.37,2013-02-09 10:37:00,
2013-02-09 05:42:00,39.4,29.7,30.29,NW,315,3.3,3.3,68,0.00,CLR,,0.00,WeatherDisplay:10.37,2013-02-09 10:42:00,
2013-02-09 05:47:00,39.4,29.7,30.29,WNW,292,4.6,4.6,68,0.00,CLR,,0.00,WeatherDisplay:10.37,2013-02-09 10:47:00,
2013-02-09 05:52:00,39.2,29.5,30.29,WSW,248,4.6,4.6,68,0.00,CLR,,0.00,WeatherDisplay:10.37,2013-02-09 10:52:00,
2013-02-09 05:57:00,39.2,29.9,30.30,WNW,292,4.6,4.6,69,0.00,CLR,,0.00,WeatherDisplay:10.37,2013-02-09 10:57:00,
2013-02-09 06:02:00,39.2,29.9,30.30,WNW,292,3.6,3.6,69,0.00,CLR,,0.00,WeatherDisplay:10.37,2013-02-09 11:02:00,
2013-02-09 06:07:00,39.0,29.7,30.31,West,270,4.6,4.6,69,0.00,CLR,,0.00,WeatherDisplay:10.37,2013-02-09 11:07:00,
2013-02-09 06:12:00,39.0,29.7,30.31,NW,315,5.8,5.8,69,0.00,CLR,,0.00,WeatherDisplay:10.37,2013-02-09 11:12:00,
2013-02-09 06:17:00,38.8,29.5,30.30,WSW,248,4.6,4.6,69,0.00,CLR,,0.00,WeatherDisplay:10.37,2013-02-09 11:17:00,
2013-02-09 06:22:00,38.8,29.5,30.31,NW,315,5.6,5.6,69,0.00,CLR,,0.00,WeatherDisplay:10.37,2013-02-09 11:22:00,
2013-02-09 06:27:00,38.7,29.4,30.31,SW,225,4.6,4.6,69,0.00,CLR,,0.00,WeatherDisplay:10.37,2013-02-09 11:27:00,
2013-02-09 06:32:00,38.5,29.2,30.32,West,270,3.5,3.5,69,0.00,CLR,,0.00,WeatherDisplay:10.37,2013-02-09 11:32:00,
2013-02-09 06:37:00,38.5,29.2,30.32,WNW,292,4.6,4.6,69,0.00,CLR,,0.00,WeatherDisplay:10.37,2013-02-09 11:37:00,
2013-02-09 06:42:00,38.5,29.2,30.32,NW,315,3.5,3.5,69,0.00,CLR,,0.00,WeatherDisplay:10.37,2013-02-09 11:42:00,
2013-02-09 06:47:00,38.3,29.0,30.33,WNW,292,3.5,3.5,69,0.00,CLR,,0.00,WeatherDisplay:10.37,2013-02-09 11:47:00,
2013-02-09 06:52:00,38.1,29.2,30.33,NNE,22,3.3,3.3,70,0.00,CLR,,0.00,WeatherDisplay:10.37,2013-02-09 11:52:00,
2013-02-09 06:57:00,38.1,29.2,30.34,NW,315,2.3,2.3,70,0.00,CLR,,0.00,WeatherDisplay:10.37,2013-02-09 11:57:00,
2013-02-09 07:02:00,37.9,29.0,30.34,West,270,3.3,3.3,70,0.00,CLR,,0.00,WeatherDisplay:10.37,2013-02-09 12:02:00,
2013-02-09 07:07:00,37.8,28.9,30.34,West,270,2.3,2.3,70,0.00,CLR,,0.00,WeatherDisplay:10.37,2013-02-09 12:07:00,
2013-02-09 07:12:00,37.8,28.9,30.34,NW,315,2.4,2.4,70,0.00,CLR,,0.00,WeatherDisplay:10.37,2013-02-09 12:12:00,
2013-02-09 07:17:00,37.8,29.2,30.35,West,270,2.9,2.9,71,0.00,CLR,,0.00,WeatherDisplay:10.37,2013-02-09 12:17:00,
2013-02-09 07:22:00,37.8,29.2,30.35,SW,225,3.5,3.5,71,0.00,CLR,,0.00,WeatherDisplay:10.37,2013-02-09 12:22:00,
2013-02-09 07:27:00,37.8,29.2,30.35,WNW,292,3.5,3.5,71,0.00,CLR,,0.00,WeatherDisplay:10.37,2013-02-09 12:27:00,
2013-02-09 07:32:00,37.8,29.2,30.36,West,270,3.5,3.5,71,0.00,CLR,,0.00,WeatherDisplay:10.37,2013-02-09 12:32:00,
2013-02-09 07:37:00,37.8,29.2,30.36,West,270,4.9,4.9,71,0.00,CLR,,0.00,WeatherDisplay:10.37,2013-02-09 12:37:00,
2013-02-09 07:42:00,37.8,29.2,30.36,WSW,248,4.6,4.6,71,0.00,CLR,,0.00,WeatherDisplay:10.37,2013-02-09 12:42:00,
2013-02-09 07:47:00,37.9,29.4,30.36,West,270,4.6,4.6,71,0.00,CLR,,0.00,WeatherDisplay:10.37,2013-02-09 12:47:00,
2013-02-09 07:52:00,38.1,29.5,30.37,WNW,292,4.6,4.6,71,0.00,CLR,,0.00,WeatherDisplay:10.37,2013-02-09 12:52:00,
2013-02-09 07:57:00,38.1,29.5,30.37,WNW,292,4.6,4.6,71,0.00,CLR,,0.00,WeatherDisplay:10.37,2013-02-09 12:57:00,
2013-02-09 08:02:00,38.5,29.9,30.37,West,270,3.5,3.5,71,0.00,CLR,,0.00,WeatherDisplay:10.37,2013-02-09 13:02:00,
2013-02-09 08:07:00,38.5,29.9,30.38,WSW,248,4.6,4.6,71,0.00,CLR,,0.00,WeatherDisplay:10.37,2013-02-09 13:07:00,
2013-02-09 08:12:00,38.7,29.7,30.38,WNW,292,3.8,3.8,70,0.00,CLR,,0.00,WeatherDisplay:10.37,2013-02-09 13:12:00,
2013-02-09 08:17:00,38.8,29.9,30.38,NW,315,5.8,5.8,70,0.00,CLR,,0.00,WeatherDisplay:10.37,2013-02-09 13:17:00,
2013-02-09 08:22:00,39.2,30.2,30.38,NW,315,5.2,5.2,70,0.00,CLR,,0.00,WeatherDisplay:10.37,2013-02-09 13:22:00,
2013-02-09 08:27:00,39.4,30.1,30.39,NW,315,5.8,5.8,69,0.00,CLR,,0.00,WeatherDisplay:10.37,2013-02-09 13:27:00,
2013-02-09 08:32:00,39.7,30.4,30.39,NW,315,5.8,5.8,69,0.00,CLR,,0.00,WeatherDisplay:10.37,2013-02-09 13:32:00,
2013-02-09 08:37:00,39.9,29.8,30.39,North,0,6.2,6.2,67,0.00,CLR,,0.00,WeatherDisplay:10.37,2013-02-09 13:37:00,
2013-02-09 08:42:00,40.5,30.0,30.39,SW,225,9.2,9.2,66,0.00,CLR,,0.00,WeatherDisplay:10.37,2013-02-09 13:42:00,
2013-02-09 08:47:00,40.8,29.2,30.39,North,0,10.4,10.4,63,0.00,CLR,,0.00,WeatherDisplay:10.37,2013-02-09 13:47:00,
2013-02-09 08:52:00,41.2,29.9,30.39,North,0,8.1,8.1,64,0.00,CLR,,0.00,WeatherDisplay:10.37,2013-02-09 13:52:00,
2013-02-09 08:57:00,41.4,29.7,30.39,West,270,8.1,8.1,63,0.00,CLR,,0.00,WeatherDisplay:10.37,2013-02-09 13:57:00,
2013-02-09 09:02:00,41.5,29.9,30.40,North,0,6.9,6.9,63,0.00,CLR,,0.00,WeatherDisplay:10.37,2013-02-09 14:02:00,
2013-02-09 09:07:00,41.9,30.2,30.40,NNW,338,6.9,6.9,63,0.00,CLR,,0.00,WeatherDisplay:10.37,2013-02-09 14:07:00,
2013-02-09 09:12:00,42.1,30.4,30.40,NNE,22,5.8,5.8,63,0.00,CLR,,0.00,WeatherDisplay:10.37,2013-02-09 14:12:00,
2013-02-09 09:17:00,42.3,30.2,30.40,NNW,338,9.2,9.2,62,0.00,CLR,,0.00,WeatherDisplay:10.37,2013-02-09 14:17:00,
2013-02-09 09:22:00,42.6,30.5,30.40,NNW,338,8.1,8.1,62,0.00,CLR,,0.00,WeatherDisplay:10.37,2013-02-09 14:22:00,
2013-02-09 09:27:00,42.8,29.9,30.40,NW,315,9.2,9.2,60,0.00,CLR,,0.00,WeatherDisplay:10.37,2013-02-09 14:27:00,
2013-02-09 09:32:00,43.0,30.4,30.40,WNW,292,8.1,8.1,61,0.00,CLR,,0.00,WeatherDisplay:10.37,2013-02-09 14:32:00,
2013-02-09 09:37:00,43.2,29.8,30.40,NNW,338,9.7,9.7,59,0.00,CLR,,0.00,WeatherDisplay:10.37,2013-02-09 14:37:00,
2013-02-09 09:42:00,43.5,30.1,30.40,NNW,338,6.9,6.9,59,0.00,CLR,,0.00,WeatherDisplay:10.37,2013-02-09 14:42:00,
2013-02-09 09:47:00,43.5,28.8,30.40,NW,315,4.6,4.6,56,0.00,CLR,,0.00,WeatherDisplay:10.37,2013-02-09 14:47:00,
2013-02-09 09:52:00,43.9,28.7,30.40,NNW,338,16.1,16.1,55,0.00,CLR,,0.00,WeatherDisplay:10.37,2013-02-09 14:52:00,
2013-02-09 09:57:00,44.2,28.2,30.40,North,0,9.2,9.2,53,0.00,CLR,,0.00,WeatherDisplay:10.37,2013-02-09 14:57:00,
2013-02-09 10:02:00,44.4,27.9,30.40,North,0,11.8,11.8,52,0.00,CLR,,0.00,WeatherDisplay:10.37,2013-02-09 15:02:00,
2013-02-09 10:07:00,44.6,28.0,30.41,NNE,22,5.8,5.8,52,0.00,CLR,,0.00,WeatherDisplay:10.37,2013-02-09 15:07:00,
2013-02-09 10:12:00,44.8,28.7,30.41,NW,315,10.4,10.4,53,0.00,CLR,,0.00,WeatherDisplay:10.37,2013-02-09 15:12:00,
2013-02-09 10:17:00,45.0,27.9,30.41,West,270,11.5,11.5,51,0.00,CLR,,0.00,WeatherDisplay:10.37,2013-02-09 15:17:00,
2013-02-09 10:22:00,45.1,27.6,30.41,North,0,8.1,8.1,50,0.00,CLR,,0.00,WeatherDisplay:10.37,2013-02-09 15:22:00,
2013-02-09 10:27:00,45.3,28.2,30.41,NNW,338,9.4,9.4,51,0.00,CLR,,0.00,WeatherDisplay:10.37,2013-02-09 15:27:00,
2013-02-09 10:32:00,45.5,27.9,30.41,NW,315,11.5,11.5,50,0.00,CLR,,0.00,WeatherDisplay:10.37,2013-02-09 15:32:00,
2013-02-09 10:37:00,45.7,27.6,30.41,NNW,338,9.2,9.2,49,0.00,CLR,,0.00,WeatherDisplay:10.37,2013-02-09 15:37:00,
2013-02-09 10:42:00,45.7,28.1,30.41,NE,45,8.5,8.5,50,0.00,CLR,,0.00,WeatherDisplay:10.37,2013-02-09 15:42:00,
2013-02-09 10:47:00,46.0,27.9,30.41,NNW,338,11.5,11.5,49,0.00,CLR,,0.00,WeatherDisplay:10.37,2013-02-09 15:47:00,
2013-02-09 10:52:00,46.2,27.6,30.41,North,0,10.4,10.4,48,0.00,CLR,,0.00,WeatherDisplay:10.37,2013-02-09 15:52:00,
2013-02-09 10:57:00,46.4,27.8,30.41,NNE,22,8.1,8.1,48,0.00,CLR,,0.00,WeatherDisplay:10.37,2013-02-09 15:57:00,
2013-02-09 11:02:00,46.6,28.9,30.41,North,0,9.2,9.2,50,0.00,CLR,,0.00,WeatherDisplay:10.37,2013-02-09 16:02:00,
2013-02-09 11:07:00,46.8,28.1,30.41,NW,315,10.4,10.4,48,0.00,CLR,,0.00,WeatherDisplay:10.37,2013-02-09 16:07:00,
2013-02-09 11:12:00,46.9,28.8,30.40,West,270,5.8,9.9,49,0.00,CLR,,0.00,WeatherDisplay:10.37,2013-02-09 16:12:00,
2013-02-09 11:17:00,47.1,28.9,30.41,NNW,338,6.9,6.9,49,0.00,CLR,,0.00,WeatherDisplay:10.37,2013-02-09 16:17:00,
2013-02-09 11:22:00,47.7,30.4,30.40,North,0,4.6,4.6,51,0.00,CLR,,0.00,WeatherDisplay:10.37,2013-02-09 16:22:00,
2013-02-09 11:27:00,48.0,30.2,30.40,NW,315,8.1,8.1,50,0.00,CLR,,0.00,WeatherDisplay:10.37,2013-02-09 16:27:00,
2013-02-09 11:32:00,48.4,29.6,30.41,North,0,7.4,7.4,48,0.00,CLR,,0.00,WeatherDisplay:10.37,2013-02-09 16:32:00,
2013-02-09 11:37:00,48.6,29.2,30.40,NNE,22,5.8,5.8,47,0.00,CLR,,0.00,WeatherDisplay:10.37,2013-02-09 16:37:00,
2013-02-09 11:42:00,48.9,29.6,30.40,North,0,9.2,9.2,47,0.00,CLR,,0.00,WeatherDisplay:10.37,2013-02-09 16:42:00,
2013-02-09 11:47:00,49.1,30.2,30.40,West,270,4.6,4.6,48,0.00,CLR,,0.00,WeatherDisplay:10.37,2013-02-09 16:47:00,
2013-02-09 11:52:00,49.3,29.9,30.40,WNW,292,9.2,9.2,47,0.00,CLR,,0.00,WeatherDisplay:10.37,2013-02-09 16:52:00,
2013-02-09 11:57:00,49.6,29.7,30.40,West,270,5.8,5.8,46,0.00,CLR,,0.00,WeatherDisplay:10.37,2013-02-09 16:57:00,
2013-02-09 12:02:00,49.8,29.8,30.40,North,0,5.8,5.8,46,0.00,CLR,,0.00,WeatherDisplay:10.37,2013-02-09 17:02:00,
2013-02-09 12:07:00,50.0,30.0,30.39,NNW,338,5.8,5.8,46,0.00,CLR,,0.00,WeatherDisplay:10.37,2013-02-09 17:07:00,
2013-02-09 12:12:00,50.2,29.1,30.39,NNW,338,10.4,10.4,44,0.00,CLR,,0.00,WeatherDisplay:10.37,2013-02-09 17:12:00,
2013-02-09 12:17:00,50.2,28.5,30.39,NW,315,8.1,8.1,43,0.00,CLR,,0.00,WeatherDisplay:10.37,2013-02-09 17:17:00,
2013-02-09 12:22:00,50.4,29.2,30.39,NNW,338,7.1,7.1,44,0.00,CLR,,0.00,WeatherDisplay:10.37,2013-02-09 17:22:00,
2013-02-09 12:27:00,50.7,28.4,30.39,NW,315,6.9,8.5,42,0.00,CLR,,0.00,WeatherDisplay:10.37,2013-02-09 17:27:00,
2013-02-09 12:32:00,50.9,29.2,30.39,NNE,22,8.1,8.1,43,0.00,CLR,,0.00,WeatherDisplay:10.37,2013-02-09 17:32:00,
2013-02-09 12:37:00,50.9,28.6,30.39,North,0,8.1,8.1,42,0.00,CLR,,0.00,WeatherDisplay:10.37,2013-02-09 17:37:00,
2013-02-09 12:42:00,51.1,29.3,30.39,WNW,292,8.1,8.1,43,0.00,CLR,,0.00,WeatherDisplay:10.37,2013-02-09 17:42:00,
2013-02-09 12:47:00,51.4,29.1,30.39,North,0,5.4,5.4,42,0.00,CLR,,0.00,WeatherDisplay:10.37,2013-02-09 17:47:00,
2013-02-09 12:52:00,51.6,29.8,30.39,NNW,338,8.1,8.1,43,0.00,CLR,,0.00,WeatherDisplay:10.37,2013-02-09 17:52:00,
2013-02-09 12:57:00,51.8,29.4,30.39,NNW,338,5.8,5.8,42,0.00,CLR,,0.00,WeatherDisplay:10.37,2013-02-09 17:57:00,
2013-02-09 13:02:00,52.2,29.7,30.39,SSW,202,5.8,5.8,42,0.00,CLR,,0.00,WeatherDisplay:10.37,2013-02-09 18:02:00,
2013-02-09 13:07:00,52.3,30.5,30.39,West,270,4.6,4.6,43,0.00,CLR,,0.00,WeatherDisplay:10.37,2013-02-09 18:07:00,
2013-02-09 13:12:00,52.5,29.5,30.39,North,0,8.1,8.1,41,0.00,CLR,,0.00,WeatherDisplay:10.37,2013-02-09 18:12:00,
2013-02-09 13:17:00,52.9,31.0,30.39,NNW,338,6.9,6.9,43,0.00,CLR,,0.00,WeatherDisplay:10.37,2013-02-09 18:17:00,
2013-02-09 13:22:00,52.9,30.4,30.39,NW,315,5.8,5.8,42,0.00,CLR,,0.00,WeatherDisplay:10.37,2013-02-09 18:22:00,
2013-02-09 13:27:00,52.9,29.8,30.39,West,270,5.8,5.8,41,0.00,CLR,,0.00,WeatherDisplay:10.37,2013-02-09 18:27:00,
2013-02-09 13:32:00,53.2,30.1,30.39,NNW,338,9.0,9.0,41,0.00,CLR,,0.00,WeatherDisplay:10.37,2013-02-09 18:32:00,
2013-02-09 13:37:00,53.2,28.9,30.38,NE,45,9.9,9.9,39,0.00,CLR,,0.00,WeatherDisplay:10.37,2013-02-09 18:37:00,
2013-02-09 13:42:00,53.6,28.6,30.38,NNE,22,6.4,6.4,38,0.00,CLR,,0.00,WeatherDisplay:10.37,2013-02-09 18:42:00,
2013-02-09 13:47:00,53.6,29.2,30.39,NNW,338,7.6,7.6,39,0.00,CLR,,0.00,WeatherDisplay:10.37,2013-02-09 18:47:00,
2013-02-09 13:53:00,53.6,29.8,30.38,ENE,68,6.9,6.9,40,0.00,CLR,,0.00,WeatherDisplay:10.37,2013-02-09 18:53:00,
2013-02-09 13:58:00,53.6,27.9,30.38,NNE,22,9.7,9.7,37,0.00,CLR,,0.00,WeatherDisplay:10.37,2013-02-09 18:58:00,
2013-02-09 14:03:00,53.8,29.4,30.38,West,270,5.4,5.4,39,0.00,CLR,,0.00,WeatherDisplay:10.37,2013-02-09 19:03:00,
2013-02-09 14:08:00,54.0,28.3,30.38,NE,45,4.6,4.9,37,0.00,CLR,,0.00,WeatherDisplay:10.37,2013-02-09 19:08:00,
2013-02-09 14:13:00,54.1,29.1,30.38,North,0,6.9,6.9,38,0.00,CLR,,0.00,WeatherDisplay:10.37,2013-02-09 19:13:00,
2013-02-09 14:18:00,54.3,30.5,30.38,NNW,338,5.8,5.8,40,0.00,CLR,,0.00,WeatherDisplay:10.37,2013-02-09 19:18:00,
2013-02-09 14:23:00,54.3,29.2,30.38,NNW,338,6.9,6.9,38,0.00,CLR,,0.00,WeatherDisplay:10.37,2013-02-09 19:23:00,
2013-02-09 14:28:00,54.5,29.4,30.38,North,0,4.6,4.6,38,0.00,CLR,,0.00,WeatherDisplay:10.37,2013-02-09 19:28:00,
2013-02-09 14:33:00,54.7,30.2,30.37,NE,45,2.9,2.9,39,0.00,CLR,,0.00,WeatherDisplay:10.37,2013-02-09 19:33:00,
2013-02-09 14:38:00,54.9,30.3,30.37,NNW,338,4.6,4.6,39,0.00,CLR,,0.00,WeatherDisplay:10.37,2013-02-09 19:38:00,
2013-02-09 14:43:00,54.9,27.0,30.37,NNW,338,6.9,6.9,34,0.00,CLR,,0.00,WeatherDisplay:10.37,2013-02-09 19:43:00,
2013-02-09 14:48:00,54.7,28.9,30.37,North,0,4.6,4.6,37,0.00,CLR,,0.00,WeatherDisplay:10.37,2013-02-09 19:48:00,
2013-02-09 14:53:00,54.7,28.2,30.37,WNW,292,9.2,9.2,36,0.00,CLR,,0.00,WeatherDisplay:10.37,2013-02-09 19:53:00,
2013-02-09 14:58:00,54.7,28.9,30.37,NNW,338,6.9,6.9,37,0.00,CLR,,0.00,WeatherDisplay:10.37,2013-02-09 19:58:00,
2013-02-09 15:03:00,54.7,28.2,30.37,NNW,338,8.1,8.1,36,0.00,CLR,,0.00,WeatherDisplay:10.37,2013-02-09 20:03:00,
2013-02-09 15:08:00,54.5,28.1,30.37,NNW,338,6.9,6.9,36,0.00,CLR,,0.00,WeatherDisplay:10.37,2013-02-09 20:08:00,
2013-02-09 15:13:00,54.7,28.9,30.37,North,0,6.2,6.2,37,0.00,CLR,,0.00,WeatherDisplay:10.37,2013-02-09 20:13:00,
2013-02-09 15:18:00,54.7,28.2,30.37,NNE,22,6.9,6.9,36,0.00,CLR,,0.00,WeatherDisplay:10.37,2013-02-09 20:18:00,
2013-02-09 15:23:00,54.7,28.9,30.37,NNW,338,5.8,7.6,37,0.00,CLR,,0.00,WeatherDisplay:10.37,2013-02-09 20:23:00,
2013-02-09 15:28:00,54.9,29.1,30.37,NNW,338,5.4,5.4,37,0.00,CLR,,0.00,WeatherDisplay:10.37,2013-02-09 20:28:00,
2013-02-09 15:33:00,55.0,29.2,30.38,NNW,338,5.4,5.4,37,0.00,CLR,,0.00,WeatherDisplay:10.37,2013-02-09 20:33:00,
2013-02-09 15:38:00,55.0,29.2,30.38,NW,315,3.5,3.5,37,0.00,CLR,,0.00,WeatherDisplay:10.37,2013-02-09 20:38:00,
2013-02-09 15:43:00,55.0,28.5,30.38,NNE,22,5.8,5.8,36,0.00,CLR,,0.00,WeatherDisplay:10.37,2013-02-09 20:43:00,
2013-02-09 15:48:00,54.9,27.7,30.38,NNW,338,4.6,4.6,35,0.00,CLR,,0.00,WeatherDisplay:10.37,2013-02-09 20:48:00,
2013-02-09 15:53:00,54.9,29.1,30.38,ENE,68,4.6,4.6,37,0.00,CLR,,0.00,WeatherDisplay:10.37,2013-02-09 20:53:00,
2013-02-09 15:58:00,54.9,28.4,30.38,North,0,6.9,7.1,36,0.00,CLR,,0.00,WeatherDisplay:10.37,2013-02-09 20:58:00,
2013-02-09 16:03:00,54.7,28.9,30.38,West,270,4.6,4.6,37,0.00,CLR,,0.00,WeatherDisplay:10.37,2013-02-09 21:03:00,
2013-02-09 16:08:00,54.9,29.7,30.38,West,270,3.5,3.5,38,0.00,CLR,,0.00,WeatherDisplay:10.37,2013-02-09 21:08:00,
2013-02-09 16:13:00,55.0,29.9,30.38,North,0,5.8,5.8,38,0.00,CLR,,0.00,WeatherDisplay:10.37,2013-02-09 21:13:00,
2013-02-09 16:18:00,54.7,28.9,30.38,NNW,338,6.9,6.9,37,0.00,CLR,,0.00,WeatherDisplay:10.37,2013-02-09 21:18:00,
2013-02-09 16:23:00,54.7,28.9,30.38,WNW,292,4.9,4.9,37,0.00,CLR,,0.00,WeatherDisplay:10.37,2013-02-09 21:23:00,
2013-02-09 16:28:00,54.5,28.7,30.39,WNW,292,5.8,5.8,37,0.00,CLR,,0.00,WeatherDisplay:10.37,2013-02-09 21:28:00,
2013-02-09 16:33:00,54.3,28.6,30.39,NNW,338,8.1,8.1,37,0.00,CLR,,0.00,WeatherDisplay:10.37,2013-02-09 21:33:00,
2013-02-09 16:38:00,54.3,28.6,30.39,North,0,5.8,5.8,37,0.00,CLR,,0.00,WeatherDisplay:10.37,2013-02-09 21:38:00,
2013-02-09 16:43:00,54.1,29.1,30.39,North,0,4.9,4.9,38,0.00,CLR,,0.00,WeatherDisplay:10.37,2013-02-09 21:43:00,
2013-02-09 16:48:00,54.1,29.1,30.39,WNW,292,6.2,6.2,38,0.00,CLR,,0.00,WeatherDisplay:10.37,2013-02-09 21:48:00,
2013-02-09 16:53:00,54.0,29.5,30.40,NW,315,3.5,3.5,39,0.00,CLR,,0.00,WeatherDisplay:10.37,2013-02-09 21:53:00,
2013-02-09 16:58:00,53.8,29.4,30.40,WNW,292,4.7,4.7,39,0.00,CLR,,0.00,WeatherDisplay:10.37,2013-02-09 21:58:00,
2013-02-09 17:03:00,53.6,28.6,30.40,NNW,338,6.0,6.0,38,0.00,CLR,,0.00,WeatherDisplay:10.37,2013-02-09 22:03:00,
2013-02-09 17:08:00,53.4,29.1,30.41,WSW,248,3.5,3.5,39,0.00,CLR,,0.00,WeatherDisplay:10.37,2013-02-09 22:08:00,
2013-02-09 17:13:00,53.2,28.9,30.41,WNW,292,4.6,4.6,39,0.00,CLR,,0.00,WeatherDisplay:10.37,2013-02-09 22:13:00,
2013-02-09 17:18:00,53.1,28.7,30.41,NNE,22,4.6,4.6,39,0.00,CLR,,0.00,WeatherDisplay:10.37,2013-02-09 22:18:00,
2013-02-09 17:23:00,52.9,29.2,30.41,NNE,22,3.5,3.5,40,0.00,CLR,,0.00,WeatherDisplay:10.37,2013-02-09 22:23:00,
2013-02-09 17:28:00,52.5,28.9,30.41,WNW,292,2.4,2.4,40,0.00,CLR,,0.00,WeatherDisplay:10.37,2013-02-09 22:28:00,
2013-02-09 17:33:00,52.2,29.1,30.41,North,0,4.6,4.6,41,0.00,CLR,,0.00,WeatherDisplay:10.37,2013-02-09 22:33:00,
2013-02-09 17:38:00,52.0,29.0,30.42,North,0,5.8,5.8,41,0.00,CLR,,0.00,WeatherDisplay:10.37,2013-02-09 22:38:00,
2013-02-09 17:43:00,51.8,28.8,30.42,North,0,4.6,4.6,41,0.00,CLR,,0.00,WeatherDisplay:10.37,2013-02-09 22:43:00,
2013-02-09 17:48:00,51.4,28.5,30.42,NNW,338,3.5,3.5,41,0.00,CLR,,0.00,WeatherDisplay:10.37,2013-02-09 22:48:00,
2013-02-09 17:54:00,51.1,28.8,30.42,North,0,2.3,2.3,42,0.00,CLR,,0.00,WeatherDisplay:10.37,2013-02-09 22:54:00,
2013-02-09 17:59:00,50.9,28.6,30.42,NNW,338,1.1,1.6,42,0.00,CLR,,0.00,WeatherDisplay:10.37,2013-02-09 22:59:00,
2013-02-09 18:04:00,50.7,29.0,30.42,NNW,338,1.1,1.1,43,0.00,CLR,,0.00,WeatherDisplay:10.37,2013-02-09 23:04:00,
2013-02-09 18:09:00,50.4,28.1,30.43,NNW,338,1.1,1.1,42,0.00,CLR,,0.00,WeatherDisplay:10.37,2013-02-09 23:09:00,
2013-02-09 18:14:00,50.0,27.8,30.42,North,0,1.1,1.1,42,0.00,CLR,,0.00,WeatherDisplay:10.37,2013-02-09 23:14:00,
2013-02-09 18:19:00,49.8,28.2,30.42,NNW,338,1.1,1.1,43,0.00,CLR,,0.00,WeatherDisplay:10.37,2013-02-09 23:19:00,
2013-02-09 18:24:00,49.5,27.9,30.42,North,0,1.1,1.1,43,0.00,CLR,,0.00,WeatherDisplay:10.37,2013-02-09 23:24:00,
2013-02-09 18:29:00,49.3,28.3,30.42,North,0,1.1,1.1,44,0.00,CLR,,0.00,WeatherDisplay:10.37,2013-02-09 23:29:00,
2013-02-09 18:34:00,48.9,27.9,30.42,North,0,1.1,1.1,44,0.00,CLR,,0.00,WeatherDisplay:10.37,2013-02-09 23:34:00,
2013-02-09 18:39:00,48.6,28.2,30.43,NW,315,0.0,0.0,45,0.00,CLR,,0.00,WeatherDisplay:10.37,2013-02-09 23:39:00,
2013-02-09 18:44:00,48.4,28.0,30.43,NW,315,0.0,0.0,45,0.00,CLR,,0.00,WeatherDisplay:10.37,2013-02-09 23:44:00,
2013-02-09 18:49:00,48.0,27.7,30.43,NW,315,0.0,0.0,45,0.00,CLR,,0.00,WeatherDisplay:10.37,2013-02-09 23:49:00,
2013-02-09 18:54:00,47.7,27.9,30.43,WNW,292,0.0,0.0,46,0.00,CLR,,0.00,WeatherDisplay:10.37,2013-02-09 23:54:00,
2013-02-09 18:59:00,47.5,27.7,30.43,WNW,292,0.0,0.0,46,0.00,CLR,,0.00,WeatherDisplay:10.37,2013-02-09 23:59:00,
2013-02-09 19:04:00,47.1,27.9,30.44,SSW,202,1.1,1.1,47,0.00,CLR,,0.00,WeatherDisplay:10.37,2013-02-10 00:04:00,
2013-02-09 19:09:00,46.6,27.9,30.44,SSW,202,1.1,1.1,48,0.00,CLR,,0.00,WeatherDisplay:10.37,2013-02-10 00:09:00,
2013-02-09 19:14:00,46.0,27.9,30.44,SSW,202,0.0,0.0,49,0.00,CLR,,0.00,WeatherDisplay:10.37,2013-02-10 00:14:00,
2013-02-09 19:19:00,45.5,27.9,30.45,SSW,202,0.0,0.0,50,0.00,CLR,,0.00,WeatherDisplay:10.37,2013-02-10 00:19:00,
2013-02-09 19:24:00,45.0,27.9,30.45,South,180,0.0,0.0,51,0.00,CLR,,0.00,WeatherDisplay:10.37,2013-02-10 00:24:00,
2013-02-09 19:29:00,44.6,28.0,30.46,South,180,0.0,0.0,52,0.00,CLR,,0.00,WeatherDisplay:10.37,2013-02-10 00:29:00,
2013-02-09 19:34:00,44.2,27.7,30.45,South,180,0.0,0.0,52,0.00,CLR,,0.00,WeatherDisplay:10.37,2013-02-10 00:34:00,
2013-02-09 19:39:00,43.9,27.8,30.45,South,180,0.0,0.0,53,0.00,CLR,,0.00,WeatherDisplay:10.37,2013-02-10 00:39:00,
2013-02-09 19:44:00,43.5,27.5,30.46,South,180,0.0,0.0,53,0.00,CLR,,0.00,WeatherDisplay:10.37,2013-02-10 00:44:00,
2013-02-09 19:49:00,43.2,27.2,30.46,SSW,202,0.0,0.0,53,0.00,CLR,,0.00,WeatherDisplay:10.37,2013-02-10 00:49:00,
2013-02-09 19:54:00,42.8,27.3,30.47,SW,225,0.5,0.5,54,0.00,CLR,,0.00,WeatherDisplay:10.37,2013-02-10 00:54:00,
2013-02-09 19:59:00,42.4,27.4,30.47,SW,225,0.0,0.0,55,0.00,CLR,,0.00,WeatherDisplay:10.37,2013-02-10 00:59:00,
2013-02-09 20:04:00,42.1,27.5,30.46,North,0,0.0,0.5,56,0.00,CLR,,0.00,WeatherDisplay:10.37,2013-02-10 01:04:00,
2013-02-09 20:09:00,42.1,27.5,30.47,North,0,0.0,0.0,56,0.00,CLR,,0.00,WeatherDisplay:10.37,2013-02-10 01:09:00,
2013-02-09 20:14:00,41.7,27.6,30.47,North,0,0.0,0.0,57,0.00,CLR,,0.00,WeatherDisplay:10.37,2013-02-10 01:14:00,
2013-02-09 20:19:00,41.5,27.4,30.48,NNW,338,0.0,0.0,57,0.00,CLR,,0.00,WeatherDisplay:10.37,2013-02-10 01:19:00,
2013-02-09 20:24:00,41.2,27.5,30.48,NNW,338,0.0,0.0,58,0.00,CLR,,0.00,WeatherDisplay:10.37,2013-02-10 01:24:00,
2013-02-09 20:29:00,41.0,27.3,30.48,SW,225,0.0,0.0,58,0.00,CLR,,0.00,WeatherDisplay:10.37,2013-02-10 01:29:00,
2013-02-09 20:34:00,40.6,27.4,30.48,SSE,158,0.0,0.0,59,0.00,CLR,,0.00,WeatherDisplay:10.37,2013-02-10 01:34:00,
2013-02-09 20:39:00,40.5,27.2,30.48,ENE,68,0.5,0.5,59,0.00,CLR,,0.00,WeatherDisplay:10.37,2013-02-10 01:39:00,
2013-02-09 20:44:00,40.3,27.5,30.48,ENE,68,0.0,0.5,60,0.00,CLR,,0.00,WeatherDisplay:10.37,2013-02-10 01:44:00,
2013-02-09 20:49:00,39.9,27.1,30.48,ESE,112,0.0,0.0,60,0.00,CLR,,0.00,WeatherDisplay:10.37,2013-02-10 01:49:00,
2013-02-09 20:54:00,39.9,27.5,30.48,ESE,112,0.0,0.0,61,0.00,CLR,,0.00,WeatherDisplay:10.37,2013-02-10 01:54:00,
2013-02-09 20:59:00,39.6,27.2,30.49,NE,45,0.0,0.0,61,0.00,CLR,,0.00,WeatherDisplay:10.37,2013-02-10 01:59:00,
2013-02-09 21:04:00,39.4,27.4,30.49,NE,45,0.0,0.0,62,0.00,CLR,,0.00,WeatherDisplay:10.37,2013-02-10 02:04:00,
2013-02-09 21:09:00,39.2,27.3,30.49,NE,45,0.0,0.0,62,0.00,CLR,,0.00,WeatherDisplay:10.37,2013-02-10 02:09:00,
2013-02-09 21:14:00,39.0,27.5,30.49,WNW,292,0.0,0.0,63,0.00,CLR,,0.00,WeatherDisplay:10.37,2013-02-10 02:14:00,
2013-02-09 21:19:00,38.8,27.3,30.49,WNW,292,0.0,0.0,63,0.00,CLR,,0.00,WeatherDisplay:10.37,2013-02-10 02:19:00,
2013-02-09 21:24:00,38.7,27.1,30.49,WNW,292,0.0,0.0,63,0.00,CLR,,0.00,WeatherDisplay:10.37,2013-02-10 02:24:00,
2013-02-09 21:29:00,38.5,27.0,30.50,WNW,292,0.0,0.0,63,0.00,CLR,,0.00,WeatherDisplay:10.37,2013-02-10 02:29:00,
2013-02-09 21:34:00,38.3,26.8,30.50,WNW,292,0.0,0.0,63,0.00,CLR,,0.00,WeatherDisplay:10.37,2013-02-10 02:34:00,
2013-02-09 21:39:00,38.1,26.6,30.50,WNW,292,0.0,0.0,63,0.00,CLR,,0.00,WeatherDisplay:10.37,2013-02-10 02:39:00,
2013-02-09 21:44:00,37.9,26.5,30.50,WNW,292,0.0,0.0,63,0.00,CLR,,0.00,WeatherDisplay:10.37,2013-02-10 02:44:00,
2013-02-09 21:49:00,37.8,26.7,30.50,WNW,292,0.0,0.0,64,0.00,CLR,,0.00,WeatherDisplay:10.37,2013-02-10 02:49:00,
2013-02-09 21:54:00,37.8,26.7,30.50,WNW,292,0.0,0.0,64,0.00,CLR,,0.00,WeatherDisplay:10.37,2013-02-10 02:54:00,
2013-02-09 21:59:00,37.6,26.5,30.50,WNW,292,0.0,0.0,64,0.00,CLR,,0.00,WeatherDisplay:10.37,2013-02-10 02:59:00,
2013-02-09 22:04:00,37.4,26.7,30.50,WNW,292,0.0,0.0,65,0.00,CLR,,0.00,WeatherDisplay:10.37,2013-02-10 03:04:00,
2013-02-09 22:09:00,37.2,26.5,30.51,West,270,0.0,0.0,65,0.00,CLR,,0.00,WeatherDisplay:10.37,2013-02-10 03:09:00,
2013-02-09 22:14:00,37.0,26.4,30.51,WSW,248,0.0,0.0,65,0.00,CLR,,0.00,WeatherDisplay:10.37,2013-02-10 03:14:00,
2013-02-09 22:19:00,37.0,26.7,30.51,WSW,248,0.0,0.0,66,0.00,CLR,,0.00,WeatherDisplay:10.37,2013-02-10 03:19:00,
2013-02-09 22:24:00,36.9,26.6,30.51,WSW,248,0.0,0.0,66,0.00,CLR,,0.00,WeatherDisplay:10.37,2013-02-10 03:24:00,
2013-02-09 22:29:00,36.7,26.4,30.51,WSW,248,0.0,0.0,66,0.00,CLR,,0.00,WeatherDisplay:10.37,2013-02-10 03:29:00,
2013-02-09 22:34:00,36.7,26.4,30.51,WSW,248,0.0,0.0,66,0.00,CLR,,0.00,WeatherDisplay:10.37,2013-02-10 03:34:00,
2013-02-09 22:39:00,36.5,26.6,30.52,WSW,248,0.0,0.0,67,0.00,CLR,,0.00,WeatherDisplay:10.37,2013-02-10 03:39:00,
2013-02-09 22:44:00,36.5,26.6,30.52,WSW,248,0.0,0.0,67,0.00,CLR,,0.00,WeatherDisplay:10.37,2013-02-10 03:44:00,
2013-02-09 22:49:00,36.3,26.4,30.52,WSW,248,0.0,0.0,67,0.00,CLR,,0.00,WeatherDisplay:10.37,2013-02-10 03:49:00,
2013-02-09 22:54:00,36.1,26.2,30.52,WSW,248,0.0,0.0,67,0.00,CLR,,0.00,WeatherDisplay:10.37,2013-02-10 03:54:00,
2013-02-09 22:59:00,36.0,26.1,30.52,WSW,248,0.0,0.0,67,0.00,CLR,,0.00,WeatherDisplay:10.37,2013-02-10 03:59:00,
2013-02-09 23:04:00,36.0,26.1,30.52,WSW,248,0.0,0.0,67,0.00,CLR,,0.00,WeatherDisplay:10.37,2013-02-10 04:04:00,
2013-02-09 23:09:00,35.8,26.2,30.52,WSW,248,0.0,0.0,68,0.00,CLR,,0.00,WeatherDisplay:10.37,2013-02-10 04:09:00,
2013-02-09 23:14:00,35.6,26.1,30.52,WSW,248,0.0,0.0,68,0.00,CLR,,0.00,WeatherDisplay:10.37,2013-02-10 04:14:00,
2013-02-09 23:19:00,35.4,25.9,30.52,WSW,248,0.0,0.0,68,0.00,CLR,,0.00,WeatherDisplay:10.37,2013-02-10 04:19:00,
2013-02-09 23:24:00,35.2,25.7,30.53,WSW,248,0.0,0.0,68,0.00,CLR,,0.00,WeatherDisplay:10.37,2013-02-10 04:24:00,
2013-02-09 23:29:00,35.1,25.9,30.52,WSW,248,0.0,0.0,69,0.00,CLR,,0.00,WeatherDisplay:10.37,2013-02-10 04:29:00,
2013-02-09 23:34:00,35.1,25.9,30.52,WSW,248,0.0,0.0,69,0.00,CLR,,0.00,WeatherDisplay:10.37,2013-02-10 04:34:00,
2013-02-09 23:39:00,34.9,25.7,30.52,ESE,112,0.0,0.0,69,0.00,CLR,,0.00,WeatherDisplay:10.37,2013-02-10 04:39:00,
2013-02-09 23:45:00,34.9,25.7,30.52,East,90,0.0,0.0,69,0.00,CLR,,0.00,WeatherDisplay:10.37,2013-02-10 04:45:00,
2013-02-09 23:50:00,34.9,26.1,30.52,East,90,0.0,0.0,70,0.00,CLR,,0.00,WeatherDisplay:10.37,2013-02-10 04:50:00,
2013-02-09 23:55:00,34.7,25.9,30.52,SW,225,0.0,0.0,70,0.00,CLR,,0.00,WeatherDisplay:10.37,2013-02-10 04:55:00,